Time;durP1;ratioP1;P1;durP2;ratioP2;P2;SDS_P1;SDS_P2;PMS_P1;PMS_P2;Temp;Humidity;BMP_temperature;BMP_pressure;BME280_temperature;BME280_humidity;BME280_pressure;Samples;Min_cycle;Max_cycle;Signal;HPM_P1;HPM_P2
2022/10/12 00:05:25;;;;;;;2.43;0.90;;;;;;;;;;20749875;28;20582;-78
2022/10/12 00:15:27;;;;;;;0.80;0.60;;;;;;;;;;20729280;28;20239;-77
2022/10/12 00:25:29;;;;;;;2.73;0.77;;;;;;;;;;20702542;28;20223;-76
2022/10/12 00:35:30;;;;;;;2.87;1.03;;;;;;;;;;20705745;28;20711;-76
2022/10/12 00:45:32;;;;;;;3.43;1.00;;;;;;;;;;20743988;28;20212;-74
2022/10/12 00:55:37;;;;;;;3.57;0.80;;;13.20;99.90;;;;;;20791316;22;20640;-76
2022/10/12 01:05:39;;;;;;;2.57;1.00;;;13.10;99.90;;;;;;20817848;28;20697;-76
2022/10/12 01:15:46;;;;;;;2.00;0.60;;;;;;;;;;20738828;28;20223;-76
2022/10/12 01:26:08;;;;;;;3.77;0.80;;;13.10;99.90;;;;;;20739107;28;20199;-76
2022/10/12 01:36:34;;;;;;;2.10;0.70;;;13.00;99.90;;;;;;20741209;28;20211;-76
2022/10/12 01:46:40;;;;;;;1.97;0.70;;;13.00;99.90;;;;;;20753292;28;20269;-76
2022/10/12 01:56:42;;;;;;;1.40;0.57;;;;;;;;;;20737989;28;20234;-76
2022/10/12 02:06:50;;;;;;;2.40;0.80;;;12.80;99.90;;;;;;20736137;28;20207;-76
2022/10/12 02:16:55;;;;;;;1.53;0.60;;;;;;;;;;20735003;28;20227;-76
2022/10/12 02:26:57;;;;;;;1.20;0.70;;;;;;;;;;20686943;28;20215;-77
2022/10/12 02:37:17;;;;;;;1.40;0.77;;;;;;;;;;20755099;28;20231;-77
2022/10/12 02:47:20;;;;;;;1.00;0.67;;;;;;;;;;20768942;28;20576;-77
2022/10/12 02:57:22;;;;;;;1.80;0.73;;;;;;;;;;20754325;28;20721;-75
2022/10/12 03:07:24;;;;;;;3.10;0.77;;;;;;;;;;20767686;28;20269;-77
2022/10/12 03:17:25;;;;;;;2.93;0.93;;;;;;;;;;20750780;28;20277;-75
2022/10/12 03:27:27;;;;;;;2.03;0.90;;;;;;;;;;20748886;28;20292;-75
2022/10/12 03:37:29;;;;;;;1.17;0.53;;;;;;;;;;20758660;28;20215;-77
2022/10/12 03:47:30;;;;;;;1.63;0.93;;;;;;;;;;20737033;28;20207;-75
2022/10/12 03:57:32;;;;;;;3.87;1.00;;;;;;;;;;20740694;28;20282;-77
2022/10/12 04:07:34;;;;;;;3.10;1.03;;;;;;;;;;20737931;28;20771;-76
2022/10/12 04:17:37;;;;;;;2.17;1.00;;;;;;;;;;20757482;28;20231;-77
2022/10/12 04:27:38;;;;;;;1.93;0.70;;;;;;;;;;20742395;28;20207;-76
2022/10/12 04:37:40;;;;;;;2.13;1.07;;;12.40;99.90;;;;;;20742578;28;20219;-76
2022/10/12 04:47:42;;;;;;;3.97;1.40;;;;;;;;;;20740222;28;20211;-77
2022/10/12 04:57:44;;;;;;;1.80;1.03;;;;;;;;;;20740416;28;20223;-76
2022/10/12 05:07:45;;;;;;;2.47;1.17;;;;;;;;;;20739935;28;20266;-76
2022/10/12 05:17:47;;;;;;;2.93;1.20;;;;;;;;;;20737847;28;20223;-76
2022/10/12 05:27:49;;;;;;;1.47;0.73;;;;;;;;;;20738818;28;20535;-76
2022/10/12 05:37:50;;;;;;;2.07;1.00;;;;;;;;;;20729612;28;20508;-76
2022/10/12 05:47:52;;;;;;;1.83;0.77;;;;;;;;;;20716414;28;20250;-76
2022/10/12 05:57:54;;;;;;;2.93;0.97;;;;;;;;;;20762666;28;20215;-76
2022/10/12 06:07:56;;;;;;;2.53;0.87;;;;;;;;;;20751592;28;20269;-76
2022/10/12 06:17:57;;;;;;;2.53;0.87;;;;;;;;;;20754458;28;20350;-75
2022/10/12 06:27:59;;;;;;;1.70;0.80;;;;;;;;;;20744030;28;20207;-75
2022/10/12 06:38:01;;;;;;;2.93;0.80;;;;;;;;;;20749432;28;20597;-75
2022/10/12 06:48:03;;;;;;;1.27;0.67;;;;;;;;;;20748914;28;20582;-75
2022/10/12 06:58:05;;;;;;;3.27;0.90;;;;;;;;;;20766833;22;20243;-68
2022/10/12 07:08:07;;;;;;;1.77;0.57;;;;;;;;;;20735294;28;20231;-69
2022/10/12 07:18:09;;;;;;;2.83;0.63;;;;;;;;;;20733528;28;20285;-69
2022/10/12 07:28:11;;;;;;;2.57;0.87;;;;;;;;;;20717017;28;20698;-69
2022/10/12 07:38:13;;;;;;;1.30;0.90;;;;;;;;;;20714574;28;20223;-69
2022/10/12 07:48:15;;;;;;;6.47;0.90;;;;;;;;;;20731906;28;20219;-69
2022/10/12 07:58:18;;;;;;;1.93;0.90;;;;;;;;;;20710994;28;20218;-69
2022/10/12 08:08:20;;;;;;;3.53;0.90;;;;;;;;;;20703419;28;20246;-69
2022/10/12 08:18:22;;;;;;;3.10;1.07;;;;;;;;;;20728457;28;20262;-69
2022/10/12 08:28:24;;;;;;;2.53;1.00;;;;;;;;;;20728605;28;20250;-70
2022/10/12 08:38:26;;;;;;;1.70;0.83;;;;;;;;;;20716218;28;20643;-70
2022/10/12 08:48:52;;;;;;;3.60;1.20;;;13.60;99.90;;;;;;20730716;28;20231;-70
2022/10/12 08:58:56;;;;;;;1.07;0.80;;;;;;;;;;20723314;28;20239;-70
2022/10/12 09:09:04;;;;;;;2.13;1.23;;;;;;;;;;20722727;28;20339;-70
2022/10/12 09:19:19;;;;;;;2.53;1.10;;;;;;;;;;20722037;28;20219;-69
2022/10/12 09:29:23;;;;;;;3.90;1.57;;;13.90;99.90;;;;;;20737932;28;20219;-69
2022/10/12 09:39:32;;;;;;;3.37;1.57;;;14.00;99.90;;;;;;20689937;28;20239;-69
2022/10/12 09:49:44;;;;;;;4.00;1.33;;;;;;;;;;20740396;28;20202;-70
2022/10/12 09:59:47;;;;;;;2.23;1.37;;;14.80;99.90;;;;;;20774380;28;20260;-70
2022/10/12 10:10:07;;;;;;;2.13;1.30;;;;;;;;;;20697259;28;20227;-69
2022/10/12 10:20:22;;;;;;;3.23;1.43;;;;;;;;;;20699534;28;20226;-69
2022/10/12 10:30:25;;;;;;;4.83;2.00;;;;;;;;;;20719628;28;20223;-68
2022/10/12 10:40:29;;;;;;;3.03;1.87;;;;;;;;;;20682677;28;20223;-69
2022/10/12 10:50:33;;;;;;;3.77;1.90;;;;;;;;;;20735484;28;20235;-69
2022/10/12 11:00:39;;;;;;;3.57;1.60;;;;;;;;;;20750968;28;20309;-69
2022/10/12 11:10:52;;;;;;;3.83;1.70;;;15.60;99.90;;;;;;20717715;28;20207;-68
2022/10/12 11:20:57;;;;;;;5.13;1.73;;;;;;;;;;20731911;28;20249;-69
2022/10/12 11:30:59;;;;;;;8.33;1.70;;;;;;;;;;20716042;28;20261;-69
2022/10/12 11:41:44;;;;;;;4.83;2.07;;;;;;;;;;20699375;28;20211;-68
2022/10/12 11:51:47;;;;;;;5.77;1.90;;;;;;;;;;20673083;28;20280;-69
2022/10/12 12:01:57;;;;;;;5.70;2.10;;;;;;;;;;20700369;28;20223;-68
2022/10/12 12:12:12;;;;;;;3.17;1.40;;;;;;;;;;20725892;28;20253;-68
2022/10/12 12:22:17;;;;;;;4.87;2.00;;;;;;;;;;20725719;28;20222;-69
2022/10/12 12:32:19;;;;;;;3.83;1.80;;;;;;;;;;20725029;28;20231;-69
2022/10/12 12:42:23;;;;;;;4.07;1.70;;;;;;;;;;20718291;28;20215;-69
2022/10/12 12:52:27;;;;;;;4.33;1.77;;;;;;;;;;20689832;28;20702;-69
2022/10/12 13:02:33;;;;;;;5.97;1.77;;;;;;;;;;20652727;23;20232;-68
2022/10/12 13:12:35;;;;;;;3.40;1.70;;;;;;;;;;20624055;28;20277;-69
2022/10/12 13:22:39;;;;;;;3.80;1.90;;;;;;;;;;20625457;28;20262;-69
2022/10/12 13:33:01;;;;;;;2.60;1.60;;;17.70;99.90;;;;;;20639583;28;20227;-69
2022/10/12 13:43:22;;;;;;;6.07;1.90;;;;;;;;;;20642288;28;20698;-67
2022/10/12 13:53:25;;;;;;;3.53;2.13;;;17.80;99.90;;;;;;20689145;28;20278;-67
2022/10/12 14:03:34;;;;;;;4.97;1.77;;;;;;;;;;20626809;28;20621;-67
2022/10/12 14:13:36;;;;;;;5.40;2.27;;;;;;;;;;20659316;28;20235;-67
2022/10/12 14:23:47;;;;;;;5.60;2.10;;;17.40;99.90;;;;;;20668171;28;20231;-67
2022/10/12 14:33:49;;;;;;;4.53;2.07;;;;;;;;;;20637578;28;20231;-67
2022/10/12 14:44:11;;;;;;;3.17;1.90;;;;;;;;;;20619925;28;20773;-66
2022/10/12 14:54:13;;;;;;;3.70;2.17;;;;;;;;;;20635625;28;20219;-66
2022/10/12 15:04:14;;;;;;;5.80;2.00;;;;;;;;;;20618165;28;20671;-67
2022/10/12 15:14:16;;;;;;;4.77;1.90;;;;;;;;;;20617808;28;20255;-67
2022/10/12 15:24:18;;;;;;;4.93;2.40;;;;;;;;;;20616829;28;20216;-67
2022/10/12 15:34:20;;;;;;;3.40;1.93;;;;;;;;;;20626432;28;20305;-67
2022/10/12 15:44:22;;;;;;;5.47;1.97;;;;;;;;;;20631773;28;20572;-67
2022/10/12 15:54:24;;;;;;;5.37;2.03;;;;;;;;;;20631411;28;20212;-67
2022/10/12 16:04:25;;;;;;;5.33;1.80;;;;;;;;;;20631667;28;20726;-67
2022/10/12 16:14:27;;;;;;;4.50;1.77;;;;;;;;;;20631443;28;20220;-67
2022/10/12 16:24:29;;;;;;;2.97;1.93;;;16.90;99.90;;;;;;20643057;28;20212;-67
2022/10/12 16:34:31;;;;;;;4.63;2.43;;;;;;;;;;20610435;28;20212;-67
2022/10/12 16:44:33;;;;;;;4.67;2.20;;;;;;;;;;20656452;23;20231;-69
2022/10/12 16:54:40;;;;;;;5.23;2.60;;;15.60;99.90;;;;;;20611104;28;20224;-68
2022/10/12 17:04:45;;;;;;;7.73;2.60;;;;;;;;;;20642286;22;20791;-69
2022/10/12 17:14:49;;;;;;;5.27;2.90;;;;;;;;;;20749480;28;20226;-68
2022/10/12 17:24:52;;;;;;;11.23;2.87;;;;;;;;;;20728981;28;20223;-67
2022/10/12 17:34:54;;;;;;;7.13;3.37;;;;;;;;;;20677093;28;20601;-67
2022/10/12 17:44:56;;;;;;;6.97;3.10;;;;;;;;;;20666245;28;20215;-67
2022/10/12 17:54:59;;;;;;;4.80;3.00;;;;;;;;;;20656747;28;20541;-67
2022/10/12 18:05:01;;;;;;;8.00;3.07;;;;;;;;;;20657374;28;20218;-67
2022/10/12 18:15:06;;;;;;;4.33;2.37;;;;;;;;;;20682254;28;20305;-67
2022/10/12 18:25:08;;;;;;;3.27;2.30;;;;;;;;;;20686082;28;20629;-67
2022/10/12 18:35:09;;;;;;;3.90;2.20;;;;;;;;;;20674399;28;21019;-67
2022/10/12 18:45:11;;;;;;;6.03;2.73;;;;;;;;;;20673009;28;20664;-67
2022/10/12 18:55:13;;;;;;;5.20;3.07;;;;;;;;;;20671637;22;20224;-68
2022/10/12 19:05:15;;;;;;;8.03;2.43;;;;;;;;;;20510623;28;20212;-67
2022/10/12 19:15:17;;;;;;;3.53;2.10;;;;;;;;;;20525734;28;20224;-67
2022/10/12 19:25:20;;;;;;;4.53;2.23;;;;;;;;;;20510361;28;20232;-67
2022/10/12 19:35:23;;;;;;;4.73;2.20;;;;;;;;;;20526885;28;20286;-68
2022/10/12 19:45:26;;;;;;;3.43;2.30;;;;;;;;;;20538739;28;20840;-67
2022/10/12 19:55:31;;;;;;;7.23;2.60;;;;;;;;;;20539325;28;20224;-68
2022/10/12 20:05:33;;;;;;;3.40;2.40;;;;;;;;;;20537092;28;20579;-66
2022/10/12 20:15:35;;;;;;;4.17;2.40;;;;;;;;;;20561164;28;20228;-68
2022/10/12 20:25:45;;;;;;;3.73;2.27;;;14.10;99.90;;;;;;20561301;28;20220;-68
2022/10/12 20:35:48;;;;;;;8.43;4.23;;;;;;;;;;20544562;28;20557;-66
2022/10/12 20:45:50;;;;;;;5.73;2.30;;;;;;;;;;20539330;28;20208;-68
2022/10/12 20:55:52;;;;;;;5.77;2.93;;;;;;;;;;20530977;28;20256;-68
2022/10/12 21:05:54;;;;;;;3.33;2.37;;;;;;;;;;20546293;28;20766;-67
2022/10/12 21:15:56;;;;;;;5.00;2.70;;;;;;;;;;20530308;28;20229;-67
2022/10/12 21:25:58;;;;;;;4.97;3.03;;;;;;;;;;20545537;28;20595;-68
2022/10/12 21:36:07;;;;;;;5.90;2.40;;;;;;;;;;20529339;28;20217;-68
2022/10/12 21:46:10;;;;;;;5.67;2.40;;;;;;;;;;20529653;28;20212;-68
2022/10/12 21:56:18;;;;;;;7.17;2.63;;;13.60;99.90;;;;;;20544680;28;20668;-67
2022/10/12 22:06:21;;;;;;;4.10;2.70;;;;;;;;;;20544809;28;20228;-68
2022/10/12 22:16:26;;;;;;;3.53;2.00;;;;;;;;;;20543443;28;20592;-68
2022/10/12 22:26:29;;;;;;;3.90;2.67;;;13.40;99.90;;;;;;20541451;28;20229;-68
2022/10/12 22:36:32;;;;;;;3.50;2.00;;;;;;;;;;20538259;28;20224;-68
2022/10/12 22:46:37;;;;;;;5.27;2.37;;;13.30;99.90;;;;;;20554097;28;20229;-68
2022/10/12 22:56:39;;;;;;;5.00;2.40;;;13.30;99.90;;;;;;20540552;28;20224;-68
2022/10/12 23:06:42;;;;;;;4.07;2.13;;;;;;;;;;20554551;28;20220;-68
2022/10/12 23:16:44;;;;;;;3.37;2.30;;;;;;;;;;20538881;28;20303;-68
2022/10/12 23:26:45;;;;;;;5.57;2.23;;;;;;;;;;20538743;28;20208;-68
2022/10/12 23:36:48;;;;;;;4.10;2.40;;;;;;;;;;20553024;28;20317;-68
2022/10/12 23:46:49;;;;;;;3.87;2.33;;;;;;;;;;20536247;28;21028;-68
2022/10/12 23:56:52;;;;;;;4.57;2.30;;;;;;;;;;20551568;28;20580;-68
